<?xml version="1.0" encoding="UTF-8" standalone="no" ?>
<gpx xmlns="http://www.topografix.com/GPX/1/1" xmlns:xsi="http://www.w3.org/2001/XMLSchema-instance" xsi:schemaLocation="http://www.topografix.com/GPX/1/1 http://www.topografix.com/GPX/1/1/gpx.xsd" version="1.1" creator="VisuGPX - https://www.visugpx.com">
  <metadata>
    <name>O Camiño dos Faros</name>
    <desc><![CDATA[Nous sommes à l’extrême ouest de l’Europe, au nord-ouest de l’Espagne. Nous vous emmenons sur o camiño dos faros, ce nouveau sentier qui parcourt les 200 km du littoral nord de la Galice, une des plus belles côtes sauvages d’Europe. Ce “chemin des phares” offre à voir bien d’autres richesses de cette terre celte que celles de sa capitale, Saint Jacques de Compostelle et son très célèbre “camino de Santiago”.  Retour sur un trekking en colorama, entre l’or éclatant des landes à ajoncs, le turquoise des eaux des rías et le rouge des barques de pêcheurs.
Site officiel : https://www.caminodosfaros.com/
]]></desc>
  </metadata>
  <trk>
    <name><![CDATA[O Camiño dos Faros (Costa da Morte-Galicia) - Track oficial ...]]></name>
    <trkseg>
      <trkpt lat="43.3233" lon="-8.80602">
        <ele>3.687</ele>
        <time>2023-07-15T12:39:02Z</time>
      </trkpt>
      <trkpt lat="43.32476" lon="-8.81026">
        <ele>15.542</ele>
        <time>2023-07-15T12:42:22Z</time>
      </trkpt>
      <trkpt lat="43.32356" lon="-8.81123">
        <ele>17.126</ele>
        <time>2023-07-15T12:43:42Z</time>
      </trkpt>
      <trkpt lat="43.32323" lon="-8.81748">
        <ele>19.208</ele>
        <time>2023-07-15T12:47:42Z</time>
      </trkpt>
      <trkpt lat="43.32467" lon="-8.81772">
        <ele>13.643</ele>
        <time>2023-07-15T12:50:22Z</time>
      </trkpt>
      <trkpt lat="43.32671" lon="-8.82251">
        <ele>38.862</ele>
        <time>2023-07-15T12:53:02Z</time>
      </trkpt>
      <trkpt lat="43.3269" lon="-8.82896">
        <ele>10.162</ele>
        <time>2023-07-15T12:58:22Z</time>
      </trkpt>
      <trkpt lat="43.3402" lon="-8.83093">
        <ele>55.487</ele>
        <time>2023-07-15T13:07:02Z</time>
      </trkpt>
      <trkpt lat="43.34381" lon="-8.83457">
        <ele>9.374</ele>
        <time>2023-07-15T13:09:42Z</time>
      </trkpt>
      <trkpt lat="43.3443" lon="-8.83925">
        <ele>18.147</ele>
        <time>2023-07-15T13:13:02Z</time>
      </trkpt>
      <trkpt lat="43.34312" lon="-8.84109">
        <ele>16.661</ele>
        <time>2023-07-15T13:15:02Z</time>
      </trkpt>
      <trkpt lat="43.34209" lon="-8.84043">
        <ele>23.242</ele>
        <time>2023-07-15T13:16:22Z</time>
      </trkpt>
      <trkpt lat="43.34134" lon="-8.84274">
        <ele>20.128</ele>
        <time>2023-07-15T13:19:02Z</time>
      </trkpt>
      <trkpt lat="43.33563" lon="-8.84756">
        <ele>13.189</ele>
        <time>2023-07-15T13:25:02Z</time>
      </trkpt>
      <trkpt lat="43.32847" lon="-8.846">
        <ele>28.217</ele>
        <time>2023-07-15T13:29:42Z</time>
      </trkpt>
      <trkpt lat="43.32764" lon="-8.84877">
        <ele>12.008</ele>
        <time>2023-07-15T13:33:02Z</time>
      </trkpt>
      <trkpt lat="43.32478" lon="-8.84812">
        <ele>20.567</ele>
        <time>2023-07-15T13:37:02Z</time>
      </trkpt>
      <trkpt lat="43.31992" lon="-8.84348">
        <ele>24.026</ele>
        <time>2023-07-15T13:41:02Z</time>
      </trkpt>
      <trkpt lat="43.31749" lon="-8.8457">
        <ele>33.046</ele>
        <time>2023-07-15T13:47:02Z</time>
      </trkpt>
      <trkpt lat="43.31929" lon="-8.84951">
        <ele>10.331</ele>
        <time>2023-07-15T13:49:02Z</time>
      </trkpt>
      <trkpt lat="43.31785" lon="-8.85357">
        <ele>19.158</ele>
        <time>2023-07-15T13:52:22Z</time>
      </trkpt>
      <trkpt lat="43.32015" lon="-8.85516">
        <ele>9.011</ele>
        <time>2023-07-15T13:55:02Z</time>
      </trkpt>
      <trkpt lat="43.31387" lon="-8.85942">
        <ele>16.995</ele>
        <time>2023-07-15T14:02:22Z</time>
      </trkpt>
      <trkpt lat="43.31562" lon="-8.86089">
        <ele>14.726</ele>
        <time>2023-07-15T14:03:02Z</time>
      </trkpt>
      <trkpt lat="43.3154" lon="-8.86207">
        <ele>34.151</ele>
        <time>2023-07-15T14:03:42Z</time>
      </trkpt>
      <trkpt lat="43.31682" lon="-8.8635">
        <ele>23.001</ele>
        <time>2023-07-15T14:04:22Z</time>
      </trkpt>
      <trkpt lat="43.31638" lon="-8.86458">
        <ele>25.111</ele>
        <time>2023-07-15T14:06:22Z</time>
      </trkpt>
      <trkpt lat="43.32077" lon="-8.86385">
        <ele>9.008</ele>
        <time>2023-07-15T14:11:02Z</time>
      </trkpt>
      <trkpt lat="43.32214" lon="-8.87012">
        <ele>7.59</ele>
        <time>2023-07-15T14:14:22Z</time>
      </trkpt>
      <trkpt lat="43.3203" lon="-8.87303">
        <ele>5.159</ele>
        <time>2023-07-15T14:16:22Z</time>
      </trkpt>
      <trkpt lat="43.31473" lon="-8.87133">
        <ele>15.449</ele>
        <time>2023-07-15T14:19:42Z</time>
      </trkpt>
      <trkpt lat="43.31583" lon="-8.87279">
        <ele>8.864</ele>
        <time>2023-07-15T14:20:22Z</time>
      </trkpt>
      <trkpt lat="43.31192" lon="-8.87473">
        <ele>11.831</ele>
        <time>2023-07-15T14:24:22Z</time>
      </trkpt>
      <trkpt lat="43.31303" lon="-8.87986">
        <ele>26.844</ele>
        <time>2023-07-15T14:29:02Z</time>
      </trkpt>
      <trkpt lat="43.31523" lon="-8.88018">
        <ele>3.868</ele>
        <time>2023-07-15T14:31:42Z</time>
      </trkpt>
      <trkpt lat="43.31845" lon="-8.88421">
        <ele>88.429</ele>
        <time>2023-07-15T14:39:02Z</time>
      </trkpt>
      <trkpt lat="43.31948" lon="-8.88818">
        <ele>71.861</ele>
        <time>2023-07-15T14:41:02Z</time>
      </trkpt>
      <trkpt lat="43.31782" lon="-8.89374">
        <ele>69.321</ele>
        <time>2023-07-15T14:44:22Z</time>
      </trkpt>
      <trkpt lat="43.31831" lon="-8.89658">
        <ele>67.313</ele>
        <time>2023-07-15T14:47:42Z</time>
      </trkpt>
      <trkpt lat="43.31746" lon="-8.8976">
        <ele>105.808</ele>
        <time>2023-07-15T14:50:22Z</time>
      </trkpt>
      <trkpt lat="43.32044" lon="-8.90382">
        <ele>57.381</ele>
        <time>2023-07-15T14:57:02Z</time>
      </trkpt>
      <trkpt lat="43.32042" lon="-8.91003">
        <ele>35.02</ele>
        <time>2023-07-15T15:03:42Z</time>
      </trkpt>
      <trkpt lat="43.31815" lon="-8.91234">
        <ele>9.51</ele>
        <time>2023-07-15T15:06:22Z</time>
      </trkpt>
      <trkpt lat="43.31261" lon="-8.90911">
        <ele>14.855</ele>
        <time>2023-07-15T15:16:22Z</time>
      </trkpt>
      <trkpt lat="43.31043" lon="-8.90927">
        <ele>8.832</ele>
        <time>2023-07-15T15:18:22Z</time>
      </trkpt>
      <trkpt lat="43.30592" lon="-8.90612">
        <ele>13.375</ele>
        <time>2023-07-15T15:22:22Z</time>
      </trkpt>
      <trkpt lat="43.30426" lon="-8.90833">
        <ele>11.769</ele>
        <time>2023-07-15T15:25:02Z</time>
      </trkpt>
      <trkpt lat="43.30138" lon="-8.90946">
        <ele>9.83</ele>
        <time>2023-07-15T15:27:02Z</time>
      </trkpt>
      <trkpt lat="43.29914" lon="-8.90879">
        <ele>16.112</ele>
        <time>2023-07-15T15:28:22Z</time>
      </trkpt>
      <trkpt lat="43.29472" lon="-8.90325">
        <ele>9.732</ele>
        <time>2023-07-15T15:32:22Z</time>
      </trkpt>
      <trkpt lat="43.29224" lon="-8.9044">
        <ele>17.605</ele>
        <time>2023-07-15T15:37:02Z</time>
      </trkpt>
      <trkpt lat="43.29185" lon="-8.90634">
        <ele>24.708</ele>
        <time>2023-07-15T15:38:22Z</time>
      </trkpt>
      <trkpt lat="43.293" lon="-8.90773">
        <ele>9.646</ele>
        <time>2023-07-15T15:41:02Z</time>
      </trkpt>
      <trkpt lat="43.2925" lon="-8.90891">
        <ele>26.445</ele>
        <time>2023-07-15T15:43:02Z</time>
      </trkpt>
      <trkpt lat="43.29393" lon="-8.91052">
        <ele>9.875</ele>
        <time>2023-07-15T15:46:22Z</time>
      </trkpt>
      <trkpt lat="43.29235" lon="-8.91086">
        <ele>19.62</ele>
        <time>2023-07-15T15:48:22Z</time>
      </trkpt>
      <trkpt lat="43.29198" lon="-8.91266">
        <ele>23.947</ele>
        <time>2023-07-15T15:49:42Z</time>
      </trkpt>
      <trkpt lat="43.2929" lon="-8.91397">
        <ele>10.55</ele>
        <time>2023-07-15T15:51:42Z</time>
      </trkpt>
      <trkpt lat="43.29246" lon="-8.91726">
        <ele>13.224</ele>
        <time>2023-07-15T15:55:42Z</time>
      </trkpt>
      <trkpt lat="43.29429" lon="-8.91801">
        <ele>7.865</ele>
        <time>2023-07-15T15:58:22Z</time>
      </trkpt>
      <trkpt lat="43.29268" lon="-8.9232">
        <ele>13.249</ele>
        <time>2023-07-15T16:03:02Z</time>
      </trkpt>
      <trkpt lat="43.2907" lon="-8.91953">
        <ele>48.002</ele>
        <time>2023-07-15T16:04:22Z</time>
      </trkpt>
      <trkpt lat="43.28895" lon="-8.92028">
        <ele>71.222</ele>
        <time>2023-07-15T16:06:22Z</time>
      </trkpt>
      <trkpt lat="43.28663" lon="-8.92809">
        <ele>8.508</ele>
        <time>2023-07-15T16:13:42Z</time>
      </trkpt>
      <trkpt lat="43.28299" lon="-8.92585">
        <ele>12.229</ele>
        <time>2023-07-15T16:21:02Z</time>
      </trkpt>
      <trkpt lat="43.28113" lon="-8.92887">
        <ele>36.068</ele>
        <time>2023-07-15T16:25:02Z</time>
      </trkpt>
      <trkpt lat="43.2876" lon="-8.93672">
        <ele>82.188</ele>
        <time>2023-07-15T16:32:22Z</time>
      </trkpt>
      <trkpt lat="43.28871" lon="-8.94075">
        <ele>57.593</ele>
        <time>2023-07-15T16:38:22Z</time>
      </trkpt>
      <trkpt lat="43.2882" lon="-8.94555">
        <ele>49.44</ele>
        <time>2023-07-15T16:41:42Z</time>
      </trkpt>
      <trkpt lat="43.28999" lon="-8.94645">
        <ele>29.593</ele>
        <time>2023-07-15T16:45:02Z</time>
      </trkpt>
      <trkpt lat="43.29196" lon="-8.95554">
        <ele>52.927</ele>
        <time>2023-07-15T16:53:02Z</time>
      </trkpt>
      <trkpt lat="43.29084" lon="-8.95819">
        <ele>65.548</ele>
        <time>2023-07-15T16:55:02Z</time>
      </trkpt>
      <trkpt lat="43.28198" lon="-8.96076">
        <ele>127.874</ele>
        <time>2023-07-15T17:03:42Z</time>
      </trkpt>
      <trkpt lat="43.28174" lon="-8.9675">
        <ele>134.056</ele>
        <time>2023-07-15T17:07:42Z</time>
      </trkpt>
      <trkpt lat="43.2826" lon="-8.97222">
        <ele>127.021</ele>
        <time>2023-07-15T17:09:02Z</time>
      </trkpt>
      <trkpt lat="43.28113" lon="-8.97382">
        <ele>112.608</ele>
        <time>2023-07-15T17:10:22Z</time>
      </trkpt>
      <trkpt lat="43.28212" lon="-8.97526">
        <ele>92.122</ele>
        <time>2023-07-15T17:11:42Z</time>
      </trkpt>
      <trkpt lat="43.28158" lon="-8.97811">
        <ele>80.221</ele>
        <time>2023-07-15T17:13:42Z</time>
      </trkpt>
      <trkpt lat="43.28269" lon="-8.9806">
        <ele>12.241</ele>
        <time>2023-07-15T17:18:22Z</time>
      </trkpt>
      <trkpt lat="43.28057" lon="-8.98419">
        <ele>21.936</ele>
        <time>2023-07-15T17:21:02Z</time>
      </trkpt>
      <trkpt lat="43.2762" lon="-8.98559">
        <ele>39.463</ele>
        <time>2023-07-15T17:26:22Z</time>
      </trkpt>
      <trkpt lat="43.27457" lon="-8.98876">
        <ele>12.746</ele>
        <time>2023-07-15T17:28:22Z</time>
      </trkpt>
      <trkpt lat="43.27501" lon="-8.98974">
        <ele>6.07</ele>
        <time>2023-07-15T17:29:42Z</time>
      </trkpt>
      <trkpt lat="43.27261" lon="-8.98617">
        <ele>7.841</ele>
        <time>2023-07-15T17:33:02Z</time>
      </trkpt>
      <trkpt lat="43.27304" lon="-8.98497">
        <ele>16.975</ele>
        <time>2023-07-15T17:34:22Z</time>
      </trkpt>
      <trkpt lat="43.27127" lon="-8.98462">
        <ele>3.428</ele>
        <time>2023-07-15T17:35:42Z</time>
      </trkpt>
      <trkpt lat="43.27002" lon="-8.98234">
        <ele>13.82</ele>
        <time>2023-07-15T17:37:42Z</time>
      </trkpt>
      <trkpt lat="43.27059" lon="-8.98196">
        <ele>21.108</ele>
        <time>2023-07-15T17:38:22Z</time>
      </trkpt>
      <trkpt lat="43.26554" lon="-8.978">
        <ele>15.152</ele>
        <time>2023-07-15T17:41:02Z</time>
      </trkpt>
      <trkpt lat="43.2644" lon="-8.97828">
        <ele>12.211</ele>
        <time>2023-07-15T17:43:42Z</time>
      </trkpt>
      <trkpt lat="43.26353" lon="-8.97543">
        <ele>18.231</ele>
        <time>2023-07-15T17:45:02Z</time>
      </trkpt>
      <trkpt lat="43.26431" lon="-8.97163">
        <ele>20.876</ele>
        <time>2023-07-15T17:47:02Z</time>
      </trkpt>
      <trkpt lat="43.26251" lon="-8.96898">
        <ele>9.523</ele>
        <time>2023-07-15T17:49:02Z</time>
      </trkpt>
      <trkpt lat="43.26266" lon="-8.96531">
        <ele>3.226</ele>
        <time>2023-07-15T17:51:42Z</time>
      </trkpt>
      <trkpt lat="43.26437" lon="-8.96513">
        <ele>13.31</ele>
        <time>2023-07-15T17:53:02Z</time>
      </trkpt>
      <trkpt lat="43.26404" lon="-8.96183">
        <ele>5.391</ele>
        <time>2023-07-15T17:55:42Z</time>
      </trkpt>
      <trkpt lat="43.2662" lon="-8.95917">
        <ele>11.341</ele>
        <time>2023-07-15T17:56:22Z</time>
      </trkpt>
      <trkpt lat="43.26523" lon="-8.95935">
        <ele>7.581</ele>
        <time>2023-07-15T17:58:22Z</time>
      </trkpt>
      <trkpt lat="43.26519" lon="-8.95747">
        <ele>4.809</ele>
        <time>2023-07-15T17:59:42Z</time>
      </trkpt>
      <trkpt lat="43.26649" lon="-8.95684">
        <ele>17.108</ele>
        <time>2023-07-15T18:01:02Z</time>
      </trkpt>
      <trkpt lat="43.26626" lon="-8.95294">
        <ele>23.699</ele>
        <time>2023-07-15T18:03:02Z</time>
      </trkpt>
      <trkpt lat="43.264" lon="-8.9511">
        <ele>6.758</ele>
        <time>2023-07-15T18:06:22Z</time>
      </trkpt>
      <trkpt lat="43.26157" lon="-8.95122">
        <ele>6.298</ele>
        <time>2023-07-15T18:08:22Z</time>
      </trkpt>
      <trkpt lat="43.25924" lon="-8.95347">
        <ele>7.123</ele>
        <time>2023-07-15T18:11:02Z</time>
      </trkpt>
      <trkpt lat="43.25819" lon="-8.95177">
        <ele>36.16</ele>
        <time>2023-07-15T18:12:22Z</time>
      </trkpt>
      <trkpt lat="43.2555" lon="-8.95185">
        <ele>12.153</ele>
        <time>2023-07-15T18:14:22Z</time>
      </trkpt>
      <trkpt lat="43.25433" lon="-8.9491">
        <ele>17.477</ele>
        <time>2023-07-15T18:17:42Z</time>
      </trkpt>
      <trkpt lat="43.24911" lon="-8.95226">
        <ele>13.658</ele>
        <time>2023-07-15T18:23:42Z</time>
      </trkpt>
      <trkpt lat="43.24558" lon="-8.95002">
        <ele>12.923</ele>
        <time>2023-07-15T18:27:42Z</time>
      </trkpt>
      <trkpt lat="43.24545" lon="-8.94799">
        <ele>71.583</ele>
        <time>2023-07-15T18:29:42Z</time>
      </trkpt>
      <trkpt lat="43.24251" lon="-8.94778">
        <ele>46.111</ele>
        <time>2023-07-15T18:34:22Z</time>
      </trkpt>
      <trkpt lat="43.24179" lon="-8.9453">
        <ele>4.508</ele>
        <time>2023-07-15T18:36:22Z</time>
      </trkpt>
      <trkpt lat="43.24313" lon="-8.94317">
        <ele>9.967</ele>
        <time>2023-07-15T18:37:42Z</time>
      </trkpt>
      <trkpt lat="43.24227" lon="-8.94019">
        <ele>6.046</ele>
        <time>2023-07-15T18:40:22Z</time>
      </trkpt>
      <trkpt lat="43.23672" lon="-8.93993">
        <ele>12.236</ele>
        <time>2023-07-15T18:45:42Z</time>
      </trkpt>
      <trkpt lat="43.23513" lon="-8.93776">
        <ele>15.811</ele>
        <time>2023-07-15T18:47:02Z</time>
      </trkpt>
      <trkpt lat="43.2325" lon="-8.93724">
        <ele>9.928</ele>
        <time>2023-07-15T18:49:02Z</time>
      </trkpt>
      <trkpt lat="43.2373" lon="-8.92612">
        <ele>5.571</ele>
        <time>2023-07-15T18:56:22Z</time>
      </trkpt>
      <trkpt lat="43.24516" lon="-8.91804">
        <ele>4.455</ele>
        <time>2023-07-15T18:58:22Z</time>
      </trkpt>
      <trkpt lat="43.24132" lon="-8.9083">
        <ele>-0.956</ele>
        <time>2023-07-15T19:03:42Z</time>
      </trkpt>
      <trkpt lat="43.24252" lon="-8.90428">
        <ele>4.386</ele>
        <time>2023-07-15T19:05:02Z</time>
      </trkpt>
      <trkpt lat="43.24232" lon="-8.90113">
        <ele>6.16</ele>
        <time>2023-07-15T19:07:02Z</time>
      </trkpt>
      <trkpt lat="43.23894" lon="-8.90171">
        <ele>3.526</ele>
        <time>2023-07-15T19:08:22Z</time>
      </trkpt>
      <trkpt lat="43.23343" lon="-8.90611">
        <ele>30.008</ele>
        <time>2023-07-15T19:11:42Z</time>
      </trkpt>
      <trkpt lat="43.23399" lon="-8.90968">
        <ele>34.353</ele>
        <time>2023-07-15T19:14:22Z</time>
      </trkpt>
      <trkpt lat="43.23765" lon="-8.91219">
        <ele>20.882</ele>
        <time>2023-07-15T19:18:22Z</time>
      </trkpt>
      <trkpt lat="43.23841" lon="-8.91577">
        <ele>6.872</ele>
        <time>2023-07-15T19:21:02Z</time>
      </trkpt>
      <trkpt lat="43.23362" lon="-8.91684">
        <ele>42.817</ele>
        <time>2023-07-15T19:24:22Z</time>
      </trkpt>
      <trkpt lat="43.23242" lon="-8.91846">
        <ele>25.374</ele>
        <time>2023-07-15T19:27:02Z</time>
      </trkpt>
      <trkpt lat="43.23137" lon="-8.91754">
        <ele>10.687</ele>
        <time>2023-07-15T19:27:42Z</time>
      </trkpt>
      <trkpt lat="43.23081" lon="-8.91922">
        <ele>3.881</ele>
        <time>2023-07-15T19:28:22Z</time>
      </trkpt>
      <trkpt lat="43.22768" lon="-8.9214">
        <ele>10.392</ele>
        <time>2023-07-15T19:30:22Z</time>
      </trkpt>
      <trkpt lat="43.22656" lon="-8.92557">
        <ele>0.031</ele>
        <time>2023-07-15T19:32:22Z</time>
      </trkpt>
      <trkpt lat="43.22422" lon="-8.92666">
        <ele>3.061</ele>
        <time>2023-07-15T19:34:22Z</time>
      </trkpt>
      <trkpt lat="43.22366" lon="-8.92849">
        <ele>3.207</ele>
        <time>2023-07-15T19:36:22Z</time>
      </trkpt>
      <trkpt lat="43.22075" lon="-8.92918">
        <ele>6.108</ele>
        <time>2023-07-15T19:38:22Z</time>
      </trkpt>
      <trkpt lat="43.22082" lon="-8.93065">
        <ele>0.958</ele>
        <time>2023-07-15T19:40:22Z</time>
      </trkpt>
      <trkpt lat="43.21866" lon="-8.93364">
        <ele>5.677</ele>
        <time>2023-07-15T19:42:22Z</time>
      </trkpt>
      <trkpt lat="43.21959" lon="-8.93531">
        <ele>0.077</ele>
        <time>2023-07-15T19:44:22Z</time>
      </trkpt>
      <trkpt lat="43.21932" lon="-8.93965">
        <ele>0.062</ele>
        <time>2023-07-15T19:45:42Z</time>
      </trkpt>
      <trkpt lat="43.21578" lon="-8.94441">
        <ele>9.769</ele>
        <time>2023-07-15T19:51:02Z</time>
      </trkpt>
      <trkpt lat="43.21568" lon="-8.94755">
        <ele>2.542</ele>
        <time>2023-07-15T19:53:42Z</time>
      </trkpt>
      <trkpt lat="43.21152" lon="-8.9521">
        <ele>22.586</ele>
        <time>2023-07-15T19:59:02Z</time>
      </trkpt>
      <trkpt lat="43.20543" lon="-8.95517">
        <ele>51.447</ele>
        <time>2023-07-15T20:09:02Z</time>
      </trkpt>
      <trkpt lat="43.20358" lon="-8.95334">
        <ele>69.298</ele>
        <time>2023-07-15T20:10:22Z</time>
      </trkpt>
      <trkpt lat="43.1972" lon="-8.95419">
        <ele>143.415</ele>
        <time>2023-07-15T20:16:22Z</time>
      </trkpt>
      <trkpt lat="43.19241" lon="-8.95708">
        <ele>196.826</ele>
        <time>2023-07-15T20:20:22Z</time>
      </trkpt>
      <trkpt lat="43.19322" lon="-8.9584">
        <ele>207.308</ele>
        <time>2023-07-15T20:23:02Z</time>
      </trkpt>
      <trkpt lat="43.19013" lon="-8.96663">
        <ele>189.634</ele>
        <time>2023-07-15T20:27:02Z</time>
      </trkpt>
      <trkpt lat="43.19115" lon="-8.9715">
        <ele>198.173</ele>
        <time>2023-07-15T20:29:02Z</time>
      </trkpt>
      <trkpt lat="43.19709" lon="-8.97006">
        <ele>211.413</ele>
        <time>2023-07-15T20:32:22Z</time>
      </trkpt>
      <trkpt lat="43.1991" lon="-8.96797">
        <ele>213.278</ele>
        <time>2023-07-15T20:34:22Z</time>
      </trkpt>
      <trkpt lat="43.1998" lon="-8.97002">
        <ele>225.855</ele>
        <time>2023-07-15T20:36:22Z</time>
      </trkpt>
      <trkpt lat="43.20218" lon="-8.97106">
        <ele>238.918</ele>
        <time>2023-07-15T20:39:02Z</time>
      </trkpt>
      <trkpt lat="43.20394" lon="-8.96862">
        <ele>240.212</ele>
        <time>2023-07-15T20:40:22Z</time>
      </trkpt>
      <trkpt lat="43.20534" lon="-8.9719">
        <ele>274.343</ele>
        <time>2023-07-15T20:41:42Z</time>
      </trkpt>
      <trkpt lat="43.20708" lon="-8.97215">
        <ele>298.534</ele>
        <time>2023-07-15T20:43:42Z</time>
      </trkpt>
      <trkpt lat="43.20802" lon="-8.97385">
        <ele>256.555</ele>
        <time>2023-07-15T20:45:02Z</time>
      </trkpt>
      <trkpt lat="43.20949" lon="-8.97073">
        <ele>237.71</ele>
        <time>2023-07-15T20:45:42Z</time>
      </trkpt>
      <trkpt lat="43.20808" lon="-8.96821">
        <ele>218.708</ele>
        <time>2023-07-15T20:47:42Z</time>
      </trkpt>
      <trkpt lat="43.21009" lon="-8.96184">
        <ele>138.388</ele>
        <time>2023-07-15T20:50:22Z</time>
      </trkpt>
      <trkpt lat="43.21144" lon="-8.96048">
        <ele>117.477</ele>
        <time>2023-07-15T20:51:02Z</time>
      </trkpt>
      <trkpt lat="43.21086" lon="-8.95954">
        <ele>113.787</ele>
        <time>2023-07-15T20:51:42Z</time>
      </trkpt>
      <trkpt lat="43.21385" lon="-8.95891">
        <ele>75.842</ele>
        <time>2023-07-15T20:53:02Z</time>
      </trkpt>
      <trkpt lat="43.21563" lon="-8.96026">
        <ele>82.759</ele>
        <time>2023-07-15T20:55:42Z</time>
      </trkpt>
      <trkpt lat="43.22178" lon="-8.95456">
        <ele>81.012</ele>
        <time>2023-07-15T20:59:42Z</time>
      </trkpt>
      <trkpt lat="43.22584" lon="-8.95469">
        <ele>68.716</ele>
        <time>2023-07-15T21:04:22Z</time>
      </trkpt>
      <trkpt lat="43.22796" lon="-8.95866">
        <ele>21.927</ele>
        <time>2023-07-15T21:08:22Z</time>
      </trkpt>
      <trkpt lat="43.22715" lon="-8.95923">
        <ele>46.075</ele>
        <time>2023-07-15T21:09:42Z</time>
      </trkpt>
      <trkpt lat="43.22829" lon="-8.96228">
        <ele>20.128</ele>
        <time>2023-07-15T21:13:42Z</time>
      </trkpt>
      <trkpt lat="43.2278" lon="-8.96669">
        <ele>9.52</ele>
        <time>2023-07-15T21:19:42Z</time>
      </trkpt>
      <trkpt lat="43.22415" lon="-8.96605">
        <ele>11.808</ele>
        <time>2023-07-15T21:25:42Z</time>
      </trkpt>
      <trkpt lat="43.22498" lon="-8.96871">
        <ele>3.122</ele>
        <time>2023-07-15T21:31:02Z</time>
      </trkpt>
      <trkpt lat="43.22345" lon="-8.97082">
        <ele>20.911</ele>
        <time>2023-07-15T21:33:42Z</time>
      </trkpt>
      <trkpt lat="43.22726" lon="-8.97986">
        <ele>36.961</ele>
        <time>2023-07-15T21:41:42Z</time>
      </trkpt>
      <trkpt lat="43.2252" lon="-8.98333">
        <ele>36.426</ele>
        <time>2023-07-15T21:45:42Z</time>
      </trkpt>
      <trkpt lat="43.22595" lon="-8.98542">
        <ele>14.123</ele>
        <time>2023-07-15T21:49:42Z</time>
      </trkpt>
      <trkpt lat="43.22273" lon="-8.98629">
        <ele>9.116</ele>
        <time>2023-07-15T21:56:22Z</time>
      </trkpt>
      <trkpt lat="43.22206" lon="-8.98399">
        <ele>24.59</ele>
        <time>2023-07-15T21:57:42Z</time>
      </trkpt>
      <trkpt lat="43.21924" lon="-8.9901">
        <ele>13.041</ele>
        <time>2023-07-15T22:03:02Z</time>
      </trkpt>
      <trkpt lat="43.21608" lon="-8.99176">
        <ele>8.187</ele>
        <time>2023-07-15T22:04:22Z</time>
      </trkpt>
      <trkpt lat="43.2164" lon="-8.9978">
        <ele>0.042</ele>
        <time>2023-07-15T22:07:02Z</time>
      </trkpt>
      <trkpt lat="43.21809" lon="-9.00156">
        <ele>0.026</ele>
        <time>2023-07-15T22:08:22Z</time>
      </trkpt>
      <trkpt lat="43.22347" lon="-9.00481">
        <ele>16.108</ele>
        <time>2023-07-15T22:13:02Z</time>
      </trkpt>
      <trkpt lat="43.22396" lon="-9.00639">
        <ele>31.073</ele>
        <time>2023-07-15T22:13:42Z</time>
      </trkpt>
      <trkpt lat="43.22642" lon="-9.00672">
        <ele>42.432</ele>
        <time>2023-07-15T22:15:02Z</time>
      </trkpt>
      <trkpt lat="43.22772" lon="-9.00478">
        <ele>37.772</ele>
        <time>2023-07-15T22:15:42Z</time>
      </trkpt>
      <trkpt lat="43.23035" lon="-9.00442">
        <ele>7.497</ele>
        <time>2023-07-15T22:18:22Z</time>
      </trkpt>
      <trkpt lat="43.22999" lon="-9.00593">
        <ele>62.064</ele>
        <time>2023-07-15T22:20:22Z</time>
      </trkpt>
      <trkpt lat="43.23255" lon="-9.01035">
        <ele>22.687</ele>
        <time>2023-07-15T22:25:02Z</time>
      </trkpt>
      <trkpt lat="43.23116" lon="-9.01326">
        <ele>12.321</ele>
        <time>2023-07-15T22:31:02Z</time>
      </trkpt>
      <trkpt lat="43.22859" lon="-9.01296">
        <ele>8.242</ele>
        <time>2023-07-15T22:36:22Z</time>
      </trkpt>
      <trkpt lat="43.22616" lon="-9.00913">
        <ele>17.339</ele>
        <time>2023-07-15T22:41:02Z</time>
      </trkpt>
      <trkpt lat="43.22462" lon="-9.00944">
        <ele>15.201</ele>
        <time>2023-07-15T22:43:42Z</time>
      </trkpt>
      <trkpt lat="43.22387" lon="-9.01282">
        <ele>14.721</ele>
        <time>2023-07-15T22:46:22Z</time>
      </trkpt>
      <trkpt lat="43.22187" lon="-9.01341">
        <ele>16.908</ele>
        <time>2023-07-15T22:50:22Z</time>
      </trkpt>
      <trkpt lat="43.2208" lon="-9.01525">
        <ele>22.738</ele>
        <time>2023-07-15T22:52:22Z</time>
      </trkpt>
      <trkpt lat="43.21937" lon="-9.01538">
        <ele>66.827</ele>
        <time>2023-07-15T22:55:02Z</time>
      </trkpt>
      <trkpt lat="43.21922" lon="-9.01715">
        <ele>72.897</ele>
        <time>2023-07-15T22:56:22Z</time>
      </trkpt>
      <trkpt lat="43.21707" lon="-9.01842">
        <ele>9.312</ele>
        <time>2023-07-15T22:59:02Z</time>
      </trkpt>
      <trkpt lat="43.21465" lon="-9.01793">
        <ele>6.129</ele>
        <time>2023-07-15T23:01:42Z</time>
      </trkpt>
      <trkpt lat="43.21239" lon="-9.02046">
        <ele>4.862</ele>
        <time>2023-07-15T23:05:02Z</time>
      </trkpt>
      <trkpt lat="43.21312" lon="-9.0269">
        <ele>14.356</ele>
        <time>2023-07-15T23:09:42Z</time>
      </trkpt>
      <trkpt lat="43.21471" lon="-9.02731">
        <ele>6.297</ele>
        <time>2023-07-15T23:11:02Z</time>
      </trkpt>
      <trkpt lat="43.21435" lon="-9.03124">
        <ele>14.879</ele>
        <time>2023-07-15T23:13:02Z</time>
      </trkpt>
      <trkpt lat="43.21037" lon="-9.03503">
        <ele>4.405</ele>
        <time>2023-07-15T23:17:42Z</time>
      </trkpt>
      <trkpt lat="43.20912" lon="-9.03318">
        <ele>13.525</ele>
        <time>2023-07-15T23:20:22Z</time>
      </trkpt>
      <trkpt lat="43.20137" lon="-9.03364">
        <ele>33.508</ele>
        <time>2023-07-15T23:24:22Z</time>
      </trkpt>
      <trkpt lat="43.19944" lon="-9.03643">
        <ele>6.032</ele>
        <time>2023-07-15T23:29:02Z</time>
      </trkpt>
      <trkpt lat="43.19854" lon="-9.03595">
        <ele>11.111</ele>
        <time>2023-07-15T23:31:02Z</time>
      </trkpt>
      <trkpt lat="43.18841" lon="-9.04281">
        <ele>1.611</ele>
        <time>2023-07-15T23:39:42Z</time>
      </trkpt>
      <trkpt lat="43.18844" lon="-9.04448">
        <ele>0.026</ele>
        <time>2023-07-15T23:41:02Z</time>
      </trkpt>
      <trkpt lat="43.18361" lon="-9.05026">
        <ele>4.973</ele>
        <time>2023-07-15T23:45:02Z</time>
      </trkpt>
      <trkpt lat="43.18439" lon="-9.0524">
        <ele>6.226</ele>
        <time>2023-07-15T23:46:22Z</time>
      </trkpt>
      <trkpt lat="43.18346" lon="-9.05292">
        <ele>9.31</ele>
        <time>2023-07-15T23:47:02Z</time>
      </trkpt>
      <trkpt lat="43.18314" lon="-9.057">
        <ele>11.451</ele>
        <time>2023-07-15T23:49:02Z</time>
      </trkpt>
      <trkpt lat="43.18637" lon="-9.07237">
        <ele>7.876</ele>
        <time>2023-07-16T00:02:22Z</time>
      </trkpt>
      <trkpt lat="43.18519" lon="-9.07611">
        <ele>8.69</ele>
        <time>2023-07-16T00:08:22Z</time>
      </trkpt>
      <trkpt lat="43.18196" lon="-9.0761">
        <ele>11.119</ele>
        <time>2023-07-16T00:13:02Z</time>
      </trkpt>
      <trkpt lat="43.18099" lon="-9.07786">
        <ele>6.908</ele>
        <time>2023-07-16T00:15:02Z</time>
      </trkpt>
      <trkpt lat="43.17938" lon="-9.09207">
        <ele>3.782</ele>
        <time>2023-07-16T00:23:42Z</time>
      </trkpt>
      <trkpt lat="43.18807" lon="-9.08971">
        <ele>3.011</ele>
        <time>2023-07-16T00:29:02Z</time>
      </trkpt>
      <trkpt lat="43.18867" lon="-9.09215">
        <ele>3.631</ele>
        <time>2023-07-16T00:31:02Z</time>
      </trkpt>
      <trkpt lat="43.18766" lon="-9.09266">
        <ele>7.456</ele>
        <time>2023-07-16T00:33:02Z</time>
      </trkpt>
      <trkpt lat="43.18945" lon="-9.09601">
        <ele>7.673</ele>
        <time>2023-07-16T00:36:22Z</time>
      </trkpt>
      <trkpt lat="43.1892" lon="-9.09764">
        <ele>10.376</ele>
        <time>2023-07-16T00:39:02Z</time>
      </trkpt>
      <trkpt lat="43.18702" lon="-9.09967">
        <ele>2.68</ele>
        <time>2023-07-16T00:41:42Z</time>
      </trkpt>
      <trkpt lat="43.18667" lon="-9.1047">
        <ele>3.231</ele>
        <time>2023-07-16T00:45:42Z</time>
      </trkpt>
      <trkpt lat="43.18512" lon="-9.10498">
        <ele>3.669</ele>
        <time>2023-07-16T00:46:22Z</time>
      </trkpt>
      <trkpt lat="43.18502" lon="-9.11142">
        <ele>9.704</ele>
        <time>2023-07-16T00:50:22Z</time>
      </trkpt>
      <trkpt lat="43.18772" lon="-9.11468">
        <ele>6.124</ele>
        <time>2023-07-16T00:54:22Z</time>
      </trkpt>
      <trkpt lat="43.19042" lon="-9.11366">
        <ele>0.008</ele>
        <time>2023-07-16T00:57:42Z</time>
      </trkpt>
      <trkpt lat="43.1938" lon="-9.11586">
        <ele>5.941</ele>
        <time>2023-07-16T01:04:22Z</time>
      </trkpt>
      <trkpt lat="43.19446" lon="-9.11923">
        <ele>0.07</ele>
        <time>2023-07-16T01:06:22Z</time>
      </trkpt>
      <trkpt lat="43.19372" lon="-9.12085">
        <ele>13.24</ele>
        <time>2023-07-16T01:08:22Z</time>
      </trkpt>
      <trkpt lat="43.19529" lon="-9.12473">
        <ele>16.655</ele>
        <time>2023-07-16T01:12:22Z</time>
      </trkpt>
      <trkpt lat="43.19398" lon="-9.12708">
        <ele>13.442</ele>
        <time>2023-07-16T01:16:22Z</time>
      </trkpt>
      <trkpt lat="43.19602" lon="-9.12994">
        <ele>10.055</ele>
        <time>2023-07-16T01:20:22Z</time>
      </trkpt>
      <trkpt lat="43.19276" lon="-9.1327">
        <ele>4.869</ele>
        <time>2023-07-16T01:24:22Z</time>
      </trkpt>
      <trkpt lat="43.19313" lon="-9.13372">
        <ele>3.47</ele>
        <time>2023-07-16T01:25:42Z</time>
      </trkpt>
      <trkpt lat="43.19226" lon="-9.13317">
        <ele>5.785</ele>
        <time>2023-07-16T01:26:22Z</time>
      </trkpt>
      <trkpt lat="43.19042" lon="-9.13543">
        <ele>5.889</ele>
        <time>2023-07-16T01:29:02Z</time>
      </trkpt>
      <trkpt lat="43.19261" lon="-9.14883">
        <ele>23.317</ele>
        <time>2023-07-16T01:37:42Z</time>
      </trkpt>
      <trkpt lat="43.18636" lon="-9.14907">
        <ele>12.208</ele>
        <time>2023-07-16T01:42:22Z</time>
      </trkpt>
      <trkpt lat="43.1843" lon="-9.15242">
        <ele>6.153</ele>
        <time>2023-07-16T01:45:02Z</time>
      </trkpt>
      <trkpt lat="43.18237" lon="-9.16187">
        <ele>7.232</ele>
        <time>2023-07-16T01:47:02Z</time>
      </trkpt>
      <trkpt lat="43.18307" lon="-9.16355">
        <ele>8.342</ele>
        <time>2023-07-16T01:48:22Z</time>
      </trkpt>
      <trkpt lat="43.1825" lon="-9.16576">
        <ele>8.077</ele>
        <time>2023-07-16T01:50:22Z</time>
      </trkpt>
      <trkpt lat="43.18702" lon="-9.17215">
        <ele>4.794</ele>
        <time>2023-07-16T01:56:22Z</time>
      </trkpt>
      <trkpt lat="43.18452" lon="-9.17348">
        <ele>9.067</ele>
        <time>2023-07-16T01:59:02Z</time>
      </trkpt>
      <trkpt lat="43.18341" lon="-9.17688">
        <ele>7.561</ele>
        <time>2023-07-16T02:01:42Z</time>
      </trkpt>
      <trkpt lat="43.17764" lon="-9.17861">
        <ele>6.122</ele>
        <time>2023-07-16T02:05:02Z</time>
      </trkpt>
      <trkpt lat="43.16893" lon="-9.17809">
        <ele>12.353</ele>
        <time>2023-07-16T02:07:42Z</time>
      </trkpt>
      <trkpt lat="43.16704" lon="-9.17967">
        <ele>9.004</ele>
        <time>2023-07-16T02:10:22Z</time>
      </trkpt>
      <trkpt lat="43.16649" lon="-9.18275">
        <ele>5.214</ele>
        <time>2023-07-16T02:12:22Z</time>
      </trkpt>
      <trkpt lat="43.16403" lon="-9.18299">
        <ele>7.108</ele>
        <time>2023-07-16T02:15:02Z</time>
      </trkpt>
      <trkpt lat="43.15954" lon="-9.18701">
        <ele>9.98</ele>
        <time>2023-07-16T02:19:42Z</time>
      </trkpt>
      <trkpt lat="43.16" lon="-9.1879">
        <ele>9.029</ele>
        <time>2023-07-16T02:21:02Z</time>
      </trkpt>
      <trkpt lat="43.15856" lon="-9.18882">
        <ele>21.949</ele>
        <time>2023-07-16T02:23:02Z</time>
      </trkpt>
      <trkpt lat="43.15653" lon="-9.18814">
        <ele>37.814</ele>
        <time>2023-07-16T02:25:42Z</time>
      </trkpt>
      <trkpt lat="43.15506" lon="-9.19034">
        <ele>52.961</ele>
        <time>2023-07-16T02:27:02Z</time>
      </trkpt>
      <trkpt lat="43.15644" lon="-9.19194">
        <ele>57.074</ele>
        <time>2023-07-16T02:29:02Z</time>
      </trkpt>
      <trkpt lat="43.15533" lon="-9.1942">
        <ele>69.858</ele>
        <time>2023-07-16T02:31:02Z</time>
      </trkpt>
      <trkpt lat="43.15557" lon="-9.19654">
        <ele>63.079</ele>
        <time>2023-07-16T02:32:22Z</time>
      </trkpt>
      <trkpt lat="43.1526" lon="-9.19858">
        <ele>46.223</ele>
        <time>2023-07-16T02:35:02Z</time>
      </trkpt>
      <trkpt lat="43.15459" lon="-9.20258">
        <ele>41.683</ele>
        <time>2023-07-16T02:38:22Z</time>
      </trkpt>
      <trkpt lat="43.15443" lon="-9.20788">
        <ele>33.811</ele>
        <time>2023-07-16T02:43:02Z</time>
      </trkpt>
      <trkpt lat="43.15589" lon="-9.20961">
        <ele>14.408</ele>
        <time>2023-07-16T02:45:42Z</time>
      </trkpt>
      <trkpt lat="43.15712" lon="-9.20865">
        <ele>18.857</ele>
        <time>2023-07-16T02:47:02Z</time>
      </trkpt>
      <trkpt lat="43.15971" lon="-9.21066">
        <ele>46.696</ele>
        <time>2023-07-16T02:51:42Z</time>
      </trkpt>
      <trkpt lat="43.15625" lon="-9.21031">
        <ele>18.936</ele>
        <time>2023-07-16T02:57:02Z</time>
      </trkpt>
      <trkpt lat="43.15631" lon="-9.21299">
        <ele>5.141</ele>
        <time>2023-07-16T02:59:02Z</time>
      </trkpt>
      <trkpt lat="43.1532" lon="-9.2124">
        <ele>8.098</ele>
        <time>2023-07-16T03:02:22Z</time>
      </trkpt>
      <trkpt lat="43.15123" lon="-9.21361">
        <ele>5.041</ele>
        <time>2023-07-16T03:03:42Z</time>
      </trkpt>
      <trkpt lat="43.14348" lon="-9.20452">
        <ele>22.445</ele>
        <time>2023-07-16T03:10:22Z</time>
      </trkpt>
      <trkpt lat="43.13367" lon="-9.20169">
        <ele>27.476</ele>
        <time>2023-07-16T03:20:22Z</time>
      </trkpt>
      <trkpt lat="43.13127" lon="-9.20451">
        <ele>35.411</ele>
        <time>2023-07-16T03:25:42Z</time>
      </trkpt>
      <trkpt lat="43.12881" lon="-9.20178">
        <ele>2.921</ele>
        <time>2023-07-16T03:29:02Z</time>
      </trkpt>
      <trkpt lat="43.1317" lon="-9.20043">
        <ele>11.403</ele>
        <time>2023-07-16T03:31:42Z</time>
      </trkpt>
      <trkpt lat="43.13235" lon="-9.19633">
        <ele>4.108</ele>
        <time>2023-07-16T03:33:42Z</time>
      </trkpt>
      <trkpt lat="43.12857" lon="-9.19406">
        <ele>28.836</ele>
        <time>2023-07-16T03:37:42Z</time>
      </trkpt>
      <trkpt lat="43.12754" lon="-9.195">
        <ele>22.085</ele>
        <time>2023-07-16T03:39:02Z</time>
      </trkpt>
      <trkpt lat="43.12502" lon="-9.19337">
        <ele>16.045</ele>
        <time>2023-07-16T03:41:02Z</time>
      </trkpt>
      <trkpt lat="43.12467" lon="-9.19166">
        <ele>10.49</ele>
        <time>2023-07-16T03:42:22Z</time>
      </trkpt>
      <trkpt lat="43.12596" lon="-9.19068">
        <ele>20.467</ele>
        <time>2023-07-16T03:44:22Z</time>
      </trkpt>
      <trkpt lat="43.1241" lon="-9.18423">
        <ele>10.84</ele>
        <time>2023-07-16T03:48:22Z</time>
      </trkpt>
      <trkpt lat="43.12841" lon="-9.18482">
        <ele>7.914</ele>
        <time>2023-07-16T03:50:22Z</time>
      </trkpt>
      <trkpt lat="43.13024" lon="-9.17987">
        <ele>14.555</ele>
        <time>2023-07-16T03:56:22Z</time>
      </trkpt>
      <trkpt lat="43.13398" lon="-9.18065">
        <ele>8.948</ele>
        <time>2023-07-16T03:57:02Z</time>
      </trkpt>
      <trkpt lat="43.13383" lon="-9.17919">
        <ele>7.461</ele>
        <time>2023-07-16T03:59:02Z</time>
      </trkpt>
      <trkpt lat="43.13637" lon="-9.17789">
        <ele>6.217</ele>
        <time>2023-07-16T04:01:42Z</time>
      </trkpt>
      <trkpt lat="43.13766" lon="-9.17871">
        <ele>3.908</ele>
        <time>2023-07-16T04:03:42Z</time>
      </trkpt>
      <trkpt lat="43.13847" lon="-9.17612">
        <ele>7.969</ele>
        <time>2023-07-16T04:05:42Z</time>
      </trkpt>
      <trkpt lat="43.13748" lon="-9.17556">
        <ele>8.838</ele>
        <time>2023-07-16T04:07:02Z</time>
      </trkpt>
      <trkpt lat="43.13741" lon="-9.17152">
        <ele>5.198</ele>
        <time>2023-07-16T04:09:02Z</time>
      </trkpt>
      <trkpt lat="43.13892" lon="-9.17168">
        <ele>16.113</ele>
        <time>2023-07-16T04:11:42Z</time>
      </trkpt>
      <trkpt lat="43.14238" lon="-9.16897">
        <ele>4.72</ele>
        <time>2023-07-16T04:15:02Z</time>
      </trkpt>
      <trkpt lat="43.14397" lon="-9.17032">
        <ele>6.393</ele>
        <time>2023-07-16T04:17:02Z</time>
      </trkpt>
      <trkpt lat="43.14709" lon="-9.16999">
        <ele>3.597</ele>
        <time>2023-07-16T04:21:02Z</time>
      </trkpt>
      <trkpt lat="43.15312" lon="-9.16547">
        <ele>6.168</ele>
        <time>2023-07-16T04:27:02Z</time>
      </trkpt>
      <trkpt lat="43.15198" lon="-9.16353">
        <ele>8.848</ele>
        <time>2023-07-16T04:28:22Z</time>
      </trkpt>
      <trkpt lat="43.14783" lon="-9.16248">
        <ele>8.161</ele>
        <time>2023-07-16T04:30:22Z</time>
      </trkpt>
      <trkpt lat="43.1442" lon="-9.16496">
        <ele>7.317</ele>
        <time>2023-07-16T04:35:02Z</time>
      </trkpt>
      <trkpt lat="43.13807" lon="-9.1653">
        <ele>20.908</ele>
        <time>2023-07-16T04:38:22Z</time>
      </trkpt>
      <trkpt lat="43.13698" lon="-9.16638">
        <ele>24.549</ele>
        <time>2023-07-16T04:39:02Z</time>
      </trkpt>
      <trkpt lat="43.13185" lon="-9.16659">
        <ele>13.838</ele>
        <time>2023-07-16T04:43:02Z</time>
      </trkpt>
      <trkpt lat="43.12977" lon="-9.16432">
        <ele>22.258</ele>
        <time>2023-07-16T04:45:42Z</time>
      </trkpt>
      <trkpt lat="43.12889" lon="-9.16045">
        <ele>7.743</ele>
        <time>2023-07-16T04:47:02Z</time>
      </trkpt>
      <trkpt lat="43.13106" lon="-9.15425">
        <ele>11.62</ele>
        <time>2023-07-16T04:51:02Z</time>
      </trkpt>
      <trkpt lat="43.13357" lon="-9.15043">
        <ele>3.023</ele>
        <time>2023-07-16T04:53:42Z</time>
      </trkpt>
      <trkpt lat="43.13882" lon="-9.15027">
        <ele>9.547</ele>
        <time>2023-07-16T04:57:02Z</time>
      </trkpt>
      <trkpt lat="43.13933" lon="-9.14772">
        <ele>17.838</ele>
        <time>2023-07-16T04:59:02Z</time>
      </trkpt>
      <trkpt lat="43.13636" lon="-9.14724">
        <ele>22.899</ele>
        <time>2023-07-16T05:01:42Z</time>
      </trkpt>
      <trkpt lat="43.13533" lon="-9.14333">
        <ele>44.307</ele>
        <time>2023-07-16T05:03:42Z</time>
      </trkpt>
      <trkpt lat="43.13709" lon="-9.14094">
        <ele>34.027</ele>
        <time>2023-07-16T05:05:02Z</time>
      </trkpt>
      <trkpt lat="43.1364" lon="-9.13973">
        <ele>27.208</ele>
        <time>2023-07-16T05:06:22Z</time>
      </trkpt>
      <trkpt lat="43.13898" lon="-9.13662">
        <ele>32.994</ele>
        <time>2023-07-16T05:09:02Z</time>
      </trkpt>
      <trkpt lat="43.13838" lon="-9.13383">
        <ele>26.913</ele>
        <time>2023-07-16T05:10:22Z</time>
      </trkpt>
      <trkpt lat="43.14061" lon="-9.12932">
        <ele>29.893</ele>
        <time>2023-07-16T05:13:42Z</time>
      </trkpt>
      <trkpt lat="43.13832" lon="-9.12696">
        <ele>30.898</ele>
        <time>2023-07-16T05:15:42Z</time>
      </trkpt>
      <trkpt lat="43.13866" lon="-9.12072">
        <ele>13.035</ele>
        <time>2023-07-16T05:20:22Z</time>
      </trkpt>
      <trkpt lat="43.13761" lon="-9.11476">
        <ele>1.418</ele>
        <time>2023-07-16T05:23:02Z</time>
      </trkpt>
      <trkpt lat="43.13238" lon="-9.12477">
        <ele>6.522</ele>
        <time>2023-07-16T05:26:22Z</time>
      </trkpt>
      <trkpt lat="43.13303" lon="-9.12621">
        <ele>4.223</ele>
        <time>2023-07-16T05:27:42Z</time>
      </trkpt>
      <trkpt lat="43.13222" lon="-9.12568">
        <ele>8.629</ele>
        <time>2023-07-16T05:29:02Z</time>
      </trkpt>
      <trkpt lat="43.13183" lon="-9.12766">
        <ele>11.1</ele>
        <time>2023-07-16T05:32:22Z</time>
      </trkpt>
      <trkpt lat="43.12771" lon="-9.12892">
        <ele>59.02</ele>
        <time>2023-07-16T05:35:02Z</time>
      </trkpt>
      <trkpt lat="43.12741" lon="-9.1325">
        <ele>75.008</ele>
        <time>2023-07-16T05:35:42Z</time>
      </trkpt>
      <trkpt lat="43.12965" lon="-9.13532">
        <ele>52.577</ele>
        <time>2023-07-16T05:37:42Z</time>
      </trkpt>
      <trkpt lat="43.1296" lon="-9.13794">
        <ele>26.936</ele>
        <time>2023-07-16T05:39:42Z</time>
      </trkpt>
      <trkpt lat="43.12593" lon="-9.14066">
        <ele>30.346</ele>
        <time>2023-07-16T05:41:42Z</time>
      </trkpt>
      <trkpt lat="43.12577" lon="-9.14538">
        <ele>16.251</ele>
        <time>2023-07-16T05:43:42Z</time>
      </trkpt>
      <trkpt lat="43.12478" lon="-9.14692">
        <ele>13.468</ele>
        <time>2023-07-16T05:45:02Z</time>
      </trkpt>
      <trkpt lat="43.12688" lon="-9.1503">
        <ele>3.751</ele>
        <time>2023-07-16T05:48:22Z</time>
      </trkpt>
      <trkpt lat="43.12496" lon="-9.15845">
        <ele>6.995</ele>
        <time>2023-07-16T05:53:02Z</time>
      </trkpt>
      <trkpt lat="43.12369" lon="-9.15579">
        <ele>48.136</ele>
        <time>2023-07-16T05:55:02Z</time>
      </trkpt>
      <trkpt lat="43.11856" lon="-9.15939">
        <ele>62.774</ele>
        <time>2023-07-16T06:00:22Z</time>
      </trkpt>
      <trkpt lat="43.11628" lon="-9.15891">
        <ele>69.256</ele>
        <time>2023-07-16T06:01:42Z</time>
      </trkpt>
      <trkpt lat="43.11698" lon="-9.16058">
        <ele>46.621</ele>
        <time>2023-07-16T06:03:42Z</time>
      </trkpt>
      <trkpt lat="43.11014" lon="-9.16557">
        <ele>4.308</ele>
        <time>2023-07-16T06:11:42Z</time>
      </trkpt>
      <trkpt lat="43.10313" lon="-9.16451">
        <ele>12.632</ele>
        <time>2023-07-16T06:16:22Z</time>
      </trkpt>
      <trkpt lat="43.1041" lon="-9.16735">
        <ele>15.771</ele>
        <time>2023-07-16T06:17:02Z</time>
      </trkpt>
      <trkpt lat="43.10386" lon="-9.1706">
        <ele>25.131</ele>
        <time>2023-07-16T06:18:22Z</time>
      </trkpt>
      <trkpt lat="43.102" lon="-9.17219">
        <ele>26.086</ele>
        <time>2023-07-16T06:20:22Z</time>
      </trkpt>
      <trkpt lat="43.09949" lon="-9.17755">
        <ele>21.843</ele>
        <time>2023-07-16T06:23:02Z</time>
      </trkpt>
      <trkpt lat="43.0945" lon="-9.17783">
        <ele>38.856</ele>
        <time>2023-07-16T06:26:22Z</time>
      </trkpt>
      <trkpt lat="43.09371" lon="-9.18134">
        <ele>29.21</ele>
        <time>2023-07-16T06:27:42Z</time>
      </trkpt>
      <trkpt lat="43.08853" lon="-9.18471">
        <ele>59.211</ele>
        <time>2023-07-16T06:31:02Z</time>
      </trkpt>
      <trkpt lat="43.0854" lon="-9.18379">
        <ele>65.064</ele>
        <time>2023-07-16T06:33:42Z</time>
      </trkpt>
      <trkpt lat="43.08432" lon="-9.18507">
        <ele>58.106</ele>
        <time>2023-07-16T06:35:02Z</time>
      </trkpt>
      <trkpt lat="43.08424" lon="-9.18872">
        <ele>40.016</ele>
        <time>2023-07-16T06:38:22Z</time>
      </trkpt>
      <trkpt lat="43.08682" lon="-9.18847">
        <ele>28.808</ele>
        <time>2023-07-16T06:43:02Z</time>
      </trkpt>
      <trkpt lat="43.08644" lon="-9.18605">
        <ele>15.591</ele>
        <time>2023-07-16T06:44:22Z</time>
      </trkpt>
      <trkpt lat="43.08822" lon="-9.18802">
        <ele>21.55</ele>
        <time>2023-07-16T06:47:02Z</time>
      </trkpt>
      <trkpt lat="43.08769" lon="-9.1903">
        <ele>26.97</ele>
        <time>2023-07-16T06:49:02Z</time>
      </trkpt>
      <trkpt lat="43.08828" lon="-9.18998">
        <ele>17.215</ele>
        <time>2023-07-16T06:49:42Z</time>
      </trkpt>
      <trkpt lat="43.08865" lon="-9.19348">
        <ele>3.492</ele>
        <time>2023-07-16T06:51:42Z</time>
      </trkpt>
      <trkpt lat="43.09279" lon="-9.1955">
        <ele>26.045</ele>
        <time>2023-07-16T06:55:42Z</time>
      </trkpt>
      <trkpt lat="43.09242" lon="-9.19772">
        <ele>69.429</ele>
        <time>2023-07-16T06:56:22Z</time>
      </trkpt>
      <trkpt lat="43.09673" lon="-9.20582">
        <ele>77.52</ele>
        <time>2023-07-16T07:02:22Z</time>
      </trkpt>
      <trkpt lat="43.09922" lon="-9.2052">
        <ele>42.622</ele>
        <time>2023-07-16T07:05:02Z</time>
      </trkpt>
      <trkpt lat="43.10005" lon="-9.21154">
        <ele>9.262</ele>
        <time>2023-07-16T07:09:02Z</time>
      </trkpt>
      <trkpt lat="43.09894" lon="-9.21292">
        <ele>5.308</ele>
        <time>2023-07-16T07:11:02Z</time>
      </trkpt>
      <trkpt lat="43.1024" lon="-9.2139">
        <ele>4.008</ele>
        <time>2023-07-16T07:12:22Z</time>
      </trkpt>
      <trkpt lat="43.10391" lon="-9.21603">
        <ele>7.757</ele>
        <time>2023-07-16T07:13:02Z</time>
      </trkpt>
      <trkpt lat="43.10855" lon="-9.21683">
        <ele>18.976</ele>
        <time>2023-07-16T07:17:42Z</time>
      </trkpt>
      <trkpt lat="43.10864" lon="-9.2182">
        <ele>50.726</ele>
        <time>2023-07-16T07:18:22Z</time>
      </trkpt>
      <trkpt lat="43.11137" lon="-9.21949">
        <ele>24.911</ele>
        <time>2023-07-16T07:22:22Z</time>
      </trkpt>
      <trkpt lat="43.1052" lon="-9.21911">
        <ele>13.238</ele>
        <time>2023-07-16T07:28:22Z</time>
      </trkpt>
      <trkpt lat="43.10474" lon="-9.22006">
        <ele>7.421</ele>
        <time>2023-07-16T07:29:42Z</time>
      </trkpt>
      <trkpt lat="43.10375" lon="-9.2187">
        <ele>8.535</ele>
        <time>2023-07-16T07:31:42Z</time>
      </trkpt>
      <trkpt lat="43.09694" lon="-9.22095">
        <ele>17.416</ele>
        <time>2023-07-16T07:35:02Z</time>
      </trkpt>
      <trkpt lat="43.08829" lon="-9.21957">
        <ele>20.195</ele>
        <time>2023-07-16T07:38:22Z</time>
      </trkpt>
      <trkpt lat="43.08714" lon="-9.22643">
        <ele>12.049</ele>
        <time>2023-07-16T07:41:42Z</time>
      </trkpt>
      <trkpt lat="43.08881" lon="-9.22667">
        <ele>4.623</ele>
        <time>2023-07-16T07:44:22Z</time>
      </trkpt>
      <trkpt lat="43.09046" lon="-9.2307">
        <ele>9.308</ele>
        <time>2023-07-16T07:47:42Z</time>
      </trkpt>
      <trkpt lat="43.08865" lon="-9.23639">
        <ele>116.454</ele>
        <time>2023-07-16T07:53:42Z</time>
      </trkpt>
      <trkpt lat="43.08464" lon="-9.23799">
        <ele>153.373</ele>
        <time>2023-07-16T07:59:02Z</time>
      </trkpt>
      <trkpt lat="43.08479" lon="-9.24133">
        <ele>64.263</ele>
        <time>2023-07-16T08:00:22Z</time>
      </trkpt>
      <trkpt lat="43.08259" lon="-9.24082">
        <ele>72.488</ele>
        <time>2023-07-16T08:02:22Z</time>
      </trkpt>
      <trkpt lat="43.08009" lon="-9.24389">
        <ele>67.185</ele>
        <time>2023-07-16T08:05:02Z</time>
      </trkpt>
      <trkpt lat="43.07716" lon="-9.24319">
        <ele>104.348</ele>
        <time>2023-07-16T08:05:42Z</time>
      </trkpt>
      <trkpt lat="43.07693" lon="-9.24442">
        <ele>108.732</ele>
        <time>2023-07-16T08:06:22Z</time>
      </trkpt>
      <trkpt lat="43.08311" lon="-9.24819">
        <ele>111.393</ele>
        <time>2023-07-16T08:08:22Z</time>
      </trkpt>
      <trkpt lat="43.08933" lon="-9.25014">
        <ele>118.649</ele>
        <time>2023-07-16T08:11:42Z</time>
      </trkpt>
      <trkpt lat="43.08938" lon="-9.25398">
        <ele>92.302</ele>
        <time>2023-07-16T08:13:02Z</time>
      </trkpt>
      <trkpt lat="43.08779" lon="-9.25086">
        <ele>156.422</ele>
        <time>2023-07-16T08:15:42Z</time>
      </trkpt>
      <trkpt lat="43.08309" lon="-9.24966">
        <ele>102.708</ele>
        <time>2023-07-16T08:19:42Z</time>
      </trkpt>
      <trkpt lat="43.08208" lon="-9.2507">
        <ele>63.519</ele>
        <time>2023-07-16T08:21:02Z</time>
      </trkpt>
      <trkpt lat="43.0816" lon="-9.24951">
        <ele>86.378</ele>
        <time>2023-07-16T08:22:22Z</time>
      </trkpt>
      <trkpt lat="43.07966" lon="-9.24985">
        <ele>68.478</ele>
        <time>2023-07-16T08:24:22Z</time>
      </trkpt>
      <trkpt lat="43.07891" lon="-9.2514">
        <ele>18.433</ele>
        <time>2023-07-16T08:26:22Z</time>
      </trkpt>
      <trkpt lat="43.07673" lon="-9.25111">
        <ele>20.17</ele>
        <time>2023-07-16T08:28:22Z</time>
      </trkpt>
      <trkpt lat="43.07451" lon="-9.24869">
        <ele>10.663</ele>
        <time>2023-07-16T08:30:22Z</time>
      </trkpt>
      <trkpt lat="43.07175" lon="-9.2486">
        <ele>8.667</ele>
        <time>2023-07-16T08:33:02Z</time>
      </trkpt>
      <trkpt lat="43.07074" lon="-9.24597">
        <ele>53.658</ele>
        <time>2023-07-16T08:35:02Z</time>
      </trkpt>
      <trkpt lat="43.06435" lon="-9.25042">
        <ele>135.128</ele>
        <time>2023-07-16T08:41:42Z</time>
      </trkpt>
      <trkpt lat="43.06138" lon="-9.24811">
        <ele>230.689</ele>
        <time>2023-07-16T08:44:22Z</time>
      </trkpt>
      <trkpt lat="43.06013" lon="-9.24939">
        <ele>255.017</ele>
        <time>2023-07-16T08:46:22Z</time>
      </trkpt>
      <trkpt lat="43.05902" lon="-9.24865">
        <ele>265.708</ele>
        <time>2023-07-16T08:47:42Z</time>
      </trkpt>
      <trkpt lat="43.05817" lon="-9.25125">
        <ele>238.227</ele>
        <time>2023-07-16T08:49:42Z</time>
      </trkpt>
      <trkpt lat="43.05614" lon="-9.25314">
        <ele>198.556</ele>
        <time>2023-07-16T08:51:42Z</time>
      </trkpt>
      <trkpt lat="43.0558" lon="-9.25493">
        <ele>137.046</ele>
        <time>2023-07-16T08:53:02Z</time>
      </trkpt>
      <trkpt lat="43.05055" lon="-9.25596">
        <ele>163.251</ele>
        <time>2023-07-16T08:55:02Z</time>
      </trkpt>
      <trkpt lat="43.05124" lon="-9.25723">
        <ele>125.248</ele>
        <time>2023-07-16T08:56:22Z</time>
      </trkpt>
      <trkpt lat="43.04774" lon="-9.26204">
        <ele>7.481</ele>
        <time>2023-07-16T09:02:22Z</time>
      </trkpt>
      <trkpt lat="43.04783" lon="-9.26613">
        <ele>44.285</ele>
        <time>2023-07-16T09:04:22Z</time>
      </trkpt>
      <trkpt lat="43.04674" lon="-9.26776">
        <ele>60.686</ele>
        <time>2023-07-16T09:05:42Z</time>
      </trkpt>
      <trkpt lat="43.04117" lon="-9.26741">
        <ele>99.429</ele>
        <time>2023-07-16T09:11:02Z</time>
      </trkpt>
      <trkpt lat="43.04025" lon="-9.27303">
        <ele>79.8</ele>
        <time>2023-07-16T09:11:42Z</time>
      </trkpt>
      <trkpt lat="43.0411" lon="-9.27659">
        <ele>56.72</ele>
        <time>2023-07-16T09:12:22Z</time>
      </trkpt>
      <trkpt lat="43.04268" lon="-9.2768">
        <ele>48.008</ele>
        <time>2023-07-16T09:13:02Z</time>
      </trkpt>
      <trkpt lat="43.04418" lon="-9.2822">
        <ele>30.997</ele>
        <time>2023-07-16T09:18:22Z</time>
      </trkpt>
      <trkpt lat="43.04321" lon="-9.28441">
        <ele>31.486</ele>
        <time>2023-07-16T09:19:02Z</time>
      </trkpt>
      <trkpt lat="43.0509" lon="-9.29077">
        <ele>32.066</ele>
        <time>2023-07-16T09:21:02Z</time>
      </trkpt>
      <trkpt lat="43.05139" lon="-9.28999">
        <ele>31.981</ele>
        <time>2023-07-16T09:21:42Z</time>
      </trkpt>
      <trkpt lat="43.05611" lon="-9.29361">
        <ele>44.038</ele>
        <time>2023-07-16T09:27:42Z</time>
      </trkpt>
      <trkpt lat="43.05497" lon="-9.29788">
        <ele>26.011</ele>
        <time>2023-07-16T09:33:42Z</time>
      </trkpt>
      <trkpt lat="43.0484" lon="-9.29788">
        <ele>14.365</ele>
        <time>2023-07-16T09:40:22Z</time>
      </trkpt>
      <trkpt lat="43.04374" lon="-9.2912">
        <ele>12.066</ele>
        <time>2023-07-16T09:46:22Z</time>
      </trkpt>
      <trkpt lat="43.04498" lon="-9.28788">
        <ele>11.882</ele>
        <time>2023-07-16T09:48:22Z</time>
      </trkpt>
      <trkpt lat="43.04161" lon="-9.28281">
        <ele>44.243</ele>
        <time>2023-07-16T09:50:22Z</time>
      </trkpt>
      <trkpt lat="43.03756" lon="-9.28103">
        <ele>79.017</ele>
        <time>2023-07-16T09:51:42Z</time>
      </trkpt>
      <trkpt lat="43.03313" lon="-9.28207">
        <ele>55.808</ele>
        <time>2023-07-16T09:57:42Z</time>
      </trkpt>
      <trkpt lat="43.01713" lon="-9.2769">
        <ele>67.173</ele>
        <time>2023-07-16T10:07:02Z</time>
      </trkpt>
      <trkpt lat="43.01705" lon="-9.27547">
        <ele>51.142</ele>
        <time>2023-07-16T10:09:42Z</time>
      </trkpt>
      <trkpt lat="43.01345" lon="-9.2724">
        <ele>33.822</ele>
        <time>2023-07-16T10:15:02Z</time>
      </trkpt>
      <trkpt lat="43.01324" lon="-9.26972">
        <ele>12.797</ele>
        <time>2023-07-16T10:17:02Z</time>
      </trkpt>
      <trkpt lat="43.01231" lon="-9.2689">
        <ele>8.574</ele>
        <time>2023-07-16T10:18:22Z</time>
      </trkpt>
      <trkpt lat="43.01227" lon="-9.26615">
        <ele>8.217</ele>
        <time>2023-07-16T10:21:02Z</time>
      </trkpt>
      <trkpt lat="43.01331" lon="-9.2657">
        <ele>21.181</ele>
        <time>2023-07-16T10:22:22Z</time>
      </trkpt>
      <trkpt lat="43.01309" lon="-9.26214">
        <ele>31.522</ele>
        <time>2023-07-16T10:24:22Z</time>
      </trkpt>
      <trkpt lat="43.01095" lon="-9.26216">
        <ele>9.974</ele>
        <time>2023-07-16T10:25:42Z</time>
      </trkpt>
      <trkpt lat="43.00538" lon="-9.25369">
        <ele>24.856</ele>
        <time>2023-07-16T10:29:42Z</time>
      </trkpt>
      <trkpt lat="43.00512" lon="-9.25152">
        <ele>25.221</ele>
        <time>2023-07-16T10:31:02Z</time>
      </trkpt>
      <trkpt lat="43.00632" lon="-9.24893">
        <ele>47.908</ele>
        <time>2023-07-16T10:32:22Z</time>
      </trkpt>
      <trkpt lat="43.00892" lon="-9.24915">
        <ele>66.042</ele>
        <time>2023-07-16T10:34:22Z</time>
      </trkpt>
      <trkpt lat="43.01142" lon="-9.2477">
        <ele>52.921</ele>
        <time>2023-07-16T10:36:22Z</time>
      </trkpt>
      <trkpt lat="43.00816" lon="-9.24273">
        <ele>62.321</ele>
        <time>2023-07-16T10:41:02Z</time>
      </trkpt>
      <trkpt lat="43.00562" lon="-9.2409">
        <ele>59.946</ele>
        <time>2023-07-16T10:43:42Z</time>
      </trkpt>
      <trkpt lat="43.00446" lon="-9.24263">
        <ele>35.123</ele>
        <time>2023-07-16T10:45:02Z</time>
      </trkpt>
      <trkpt lat="43.0021" lon="-9.24129">
        <ele>23.676</ele>
        <time>2023-07-16T10:47:42Z</time>
      </trkpt>
      <trkpt lat="42.99977" lon="-9.24403">
        <ele>34.89</ele>
        <time>2023-07-16T10:51:42Z</time>
      </trkpt>
      <trkpt lat="42.99771" lon="-9.24441">
        <ele>25.261</ele>
        <time>2023-07-16T10:54:22Z</time>
      </trkpt>
      <trkpt lat="42.99701" lon="-9.24807">
        <ele>9.395</ele>
        <time>2023-07-16T10:57:02Z</time>
      </trkpt>
      <trkpt lat="42.99862" lon="-9.24884">
        <ele>19.849</ele>
        <time>2023-07-16T10:58:22Z</time>
      </trkpt>
      <trkpt lat="43.00277" lon="-9.25559">
        <ele>7.623</ele>
        <time>2023-07-16T11:03:02Z</time>
      </trkpt>
      <trkpt lat="43.00052" lon="-9.2584">
        <ele>17.208</ele>
        <time>2023-07-16T11:05:42Z</time>
      </trkpt>
      <trkpt lat="42.99891" lon="-9.25853">
        <ele>30.954</ele>
        <time>2023-07-16T11:07:02Z</time>
      </trkpt>
      <trkpt lat="42.99711" lon="-9.25643">
        <ele>48.623</ele>
        <time>2023-07-16T11:07:42Z</time>
      </trkpt>
      <trkpt lat="42.99492" lon="-9.25691">
        <ele>35.663</ele>
        <time>2023-07-16T11:09:42Z</time>
      </trkpt>
      <trkpt lat="42.99535" lon="-9.25796">
        <ele>15.658</ele>
        <time>2023-07-16T11:11:02Z</time>
      </trkpt>
      <trkpt lat="42.98964" lon="-9.25795">
        <ele>98.515</ele>
        <time>2023-07-16T11:16:22Z</time>
      </trkpt>
      <trkpt lat="42.98907" lon="-9.26006">
        <ele>69.688</ele>
        <time>2023-07-16T11:17:42Z</time>
      </trkpt>
      <trkpt lat="42.98792" lon="-9.25837">
        <ele>101.172</ele>
        <time>2023-07-16T11:19:02Z</time>
      </trkpt>
      <trkpt lat="42.98295" lon="-9.25841">
        <ele>117.733</ele>
        <time>2023-07-16T11:24:22Z</time>
      </trkpt>
      <trkpt lat="42.98312" lon="-9.26019">
        <ele>75.111</ele>
        <time>2023-07-16T11:25:42Z</time>
      </trkpt>
      <trkpt lat="42.98176" lon="-9.26111">
        <ele>64.121</ele>
        <time>2023-07-16T11:26:22Z</time>
      </trkpt>
      <trkpt lat="42.98016" lon="-9.2602">
        <ele>58.103</ele>
        <time>2023-07-16T11:27:42Z</time>
      </trkpt>
      <trkpt lat="42.98001" lon="-9.26138">
        <ele>32.808</ele>
        <time>2023-07-16T11:28:22Z</time>
      </trkpt>
      <trkpt lat="42.97337" lon="-9.25784">
        <ele>10.056</ele>
        <time>2023-07-16T11:34:22Z</time>
      </trkpt>
      <trkpt lat="42.97407" lon="-9.25961">
        <ele>7.585</ele>
        <time>2023-07-16T11:36:22Z</time>
      </trkpt>
      <trkpt lat="42.9643" lon="-9.26722">
        <ele>0.055</ele>
        <time>2023-07-16T11:39:02Z</time>
      </trkpt>
      <trkpt lat="42.96154" lon="-9.27092">
        <ele>5.29</ele>
        <time>2023-07-16T11:40:22Z</time>
      </trkpt>
      <trkpt lat="42.95923" lon="-9.27092">
        <ele>20.137</ele>
        <time>2023-07-16T11:43:02Z</time>
      </trkpt>
      <trkpt lat="42.96177" lon="-9.27584">
        <ele>20.08</ele>
        <time>2023-07-16T11:46:22Z</time>
      </trkpt>
      <trkpt lat="42.95834" lon="-9.27561">
        <ele>58.084</ele>
        <time>2023-07-16T11:51:02Z</time>
      </trkpt>
      <trkpt lat="42.95564" lon="-9.27789">
        <ele>66.395</ele>
        <time>2023-07-16T11:53:02Z</time>
      </trkpt>
      <trkpt lat="42.95522" lon="-9.27975">
        <ele>47.612</ele>
        <time>2023-07-16T11:53:42Z</time>
      </trkpt>
      <trkpt lat="42.9524" lon="-9.28277">
        <ele>48.332</ele>
        <time>2023-07-16T11:57:02Z</time>
      </trkpt>
      <trkpt lat="42.94327" lon="-9.28044">
        <ele>58.605</ele>
        <time>2023-07-16T12:06:22Z</time>
      </trkpt>
      <trkpt lat="42.94265" lon="-9.27859">
        <ele>83.608</ele>
        <time>2023-07-16T12:07:42Z</time>
      </trkpt>
      <trkpt lat="42.93972" lon="-9.27976">
        <ele>81.726</ele>
        <time>2023-07-16T12:09:02Z</time>
      </trkpt>
      <trkpt lat="42.9406" lon="-9.28371">
        <ele>63.385</ele>
        <time>2023-07-16T12:10:22Z</time>
      </trkpt>
      <trkpt lat="42.94314" lon="-9.28734">
        <ele>34.935</ele>
        <time>2023-07-16T12:12:22Z</time>
      </trkpt>
      <trkpt lat="42.93671" lon="-9.2878">
        <ele>121.05</ele>
        <time>2023-07-16T12:17:42Z</time>
      </trkpt>
      <trkpt lat="42.93513" lon="-9.2893">
        <ele>104.457</ele>
        <time>2023-07-16T12:21:02Z</time>
      </trkpt>
      <trkpt lat="42.92954" lon="-9.28805">
        <ele>152.31</ele>
        <time>2023-07-16T12:28:22Z</time>
      </trkpt>
      <trkpt lat="42.92475" lon="-9.29162">
        <ele>226.764</ele>
        <time>2023-07-16T12:33:02Z</time>
      </trkpt>
      <trkpt lat="42.92383" lon="-9.29002">
        <ele>205.825</ele>
        <time>2023-07-16T12:34:22Z</time>
      </trkpt>
      <trkpt lat="42.92576" lon="-9.28637">
        <ele>190.575</ele>
        <time>2023-07-16T12:35:42Z</time>
      </trkpt>
      <trkpt lat="42.92372" lon="-9.28187">
        <ele>197.428</ele>
        <time>2023-07-16T12:38:22Z</time>
      </trkpt>
      <trkpt lat="42.91796" lon="-9.27831">
        <ele>169.92</ele>
        <time>2023-07-16T12:42:22Z</time>
      </trkpt>
      <trkpt lat="42.91177" lon="-9.27689">
        <ele>23.908</ele>
        <time>2023-07-16T12:47:02Z</time>
      </trkpt>
      <trkpt lat="42.90761" lon="-9.27416">
        <ele>9.992</ele>
        <time>2023-07-16T12:51:02Z</time>
      </trkpt>
      <trkpt lat="42.90822" lon="-9.2737">
        <ele>10.131</ele>
        <time>2023-07-16T12:51:42Z</time>
      </trkpt>
      <trkpt lat="42.90636" lon="-9.27384">
        <ele>24.781</ele>
        <time>2023-07-16T12:54:22Z</time>
      </trkpt>
      <trkpt lat="42.90605" lon="-9.27093">
        <ele>43.156</ele>
        <time>2023-07-16T12:55:42Z</time>
      </trkpt>
      <trkpt lat="42.90414" lon="-9.26963">
        <ele>67.793</ele>
        <time>2023-07-16T12:58:22Z</time>
      </trkpt>
      <trkpt lat="42.90252" lon="-9.27011">
        <ele>91.626</ele>
        <time>2023-07-16T12:59:42Z</time>
      </trkpt>
      <trkpt lat="42.90213" lon="-9.27346">
        <ele>113.93</ele>
        <time>2023-07-16T13:02:22Z</time>
      </trkpt>
      <trkpt lat="42.90023" lon="-9.27548">
        <ele>101.631</ele>
        <time>2023-07-16T13:04:22Z</time>
      </trkpt>
      <trkpt lat="42.89454" lon="-9.2771">
        <ele>106.731</ele>
        <time>2023-07-16T13:09:02Z</time>
      </trkpt>
      <trkpt lat="42.89269" lon="-9.27919">
        <ele>107.961</ele>
        <time>2023-07-16T13:11:02Z</time>
      </trkpt>
      <trkpt lat="42.89109" lon="-9.27815">
        <ele>153.907</ele>
        <time>2023-07-16T13:13:02Z</time>
      </trkpt>
      <trkpt lat="42.89168" lon="-9.27565">
        <ele>201.908</ele>
        <time>2023-07-16T13:15:42Z</time>
      </trkpt>
      <trkpt lat="42.89067" lon="-9.27188">
        <ele>204.848</ele>
        <time>2023-07-16T13:18:22Z</time>
      </trkpt>
      <trkpt lat="42.88842" lon="-9.27253">
        <ele>170.187</ele>
        <time>2023-07-16T13:21:02Z</time>
      </trkpt>
      <trkpt lat="42.88899" lon="-9.27155">
        <ele>164.017</ele>
        <time>2023-07-16T13:21:42Z</time>
      </trkpt>
      <trkpt lat="42.88178" lon="-9.27204">
        <ele>100.532</ele>
        <time>2023-07-16T13:30:22Z</time>
      </trkpt>
    </trkseg>
  </trk>
</gpx>